Time;durP1;ratioP1;P1;durP2;ratioP2;P2;SDS_P1;SDS_P2;PMS_P1;PMS_P2;Temp;Humidity;BMP_temperature;BMP_pressure;BME280_temperature;BME280_humidity;BME280_pressure;Samples;Min_cycle;Max_cycle;Signal;HPM_P1;HPM_P2
2023/05/19 00:01:55;;;;;;;;;17.00;15.00;;;;;15.61;46.02;101889.09;4996036;28;47098;-67
2023/05/19 00:04:21;;;;;;;;;21.00;15.75;;;;;15.56;46.44;101891.66;4995711;28;45542;-68
2023/05/19 00:06:50;;;;;;;;;15.25;11.50;;;;;15.56;46.74;101894.34;4995771;28;45574;-66
2023/05/19 00:09:16;;;;;;;;;16.25;13.25;;;;;15.52;46.56;101889.75;5011228;28;45142;-65
2023/05/19 00:11:42;;;;;;;;;13.25;11.50;;;;;15.50;46.98;101896.91;5009900;28;45690;-64
2023/05/19 00:14:08;;;;;;;;;18.25;12.25;;;;;15.38;47.07;101880.44;4985701;28;45911;-63
2023/05/19 00:16:36;;;;;;;;;17.50;12.50;;;;;15.41;47.35;101889.50;4998570;28;45214;-66
2023/05/19 00:19:04;;;;;;;;;16.00;16.00;;;;;15.41;47.81;101893.97;4996342;28;45487;-68
2023/05/19 00:21:30;;;;;;;;;17.75;15.75;;;;;15.39;47.91;101896.66;4997756;28;45551;-68
2023/05/19 00:23:56;;;;;;;;;14.50;13.00;;;;;15.35;47.91;101897.44;5001295;28;45515;-67
2023/05/19 00:26:21;;;;;;;;;12.00;12.00;;;;;15.32;47.99;101901.81;4995936;28;45352;-68
2023/05/19 00:28:48;;;;;;;;;20.00;17.00;;;;;15.20;48.22;101878.19;5003226;28;45518;-68
2023/05/19 00:31:13;;;;;;;;;21.25;15.50;;;;;15.19;48.16;101887.13;4974463;28;47018;-68
2023/05/19 00:33:39;;;;;;;;;17.50;13.00;;;;;15.25;48.47;101901.66;4996117;28;45437;-67
2023/05/19 00:36:04;;;;;;;;;14.75;14.25;;;;;15.17;48.75;101880.81;4995867;28;45909;-68
2023/05/19 00:38:31;;;;;;;;;17.25;11.00;;;;;15.09;48.76;101862.66;5001804;28;44867;-68
2023/05/19 00:40:56;;;;;;;;;19.50;14.50;;;;;15.17;49.30;101887.09;4995345;28;45790;-67
2023/05/19 00:43:21;;;;;;;;;16.75;11.50;;;;;15.14;49.30;101891.50;4994735;28;45460;-66
2023/05/19 00:45:47;;;;;;;;;20.50;13.50;;;;;15.13;49.41;101895.03;4995495;28;45329;-68
2023/05/19 00:48:12;;;;;;;;;18.00;15.75;;;;;15.12;49.79;101894.16;4997615;28;45455;-68
2023/05/19 00:50:38;;;;;;;;;15.75;14.25;;;;;15.09;49.48;101877.91;4996476;28;45573;-68
2023/05/19 00:53:04;;;;;;;;;19.75;14.75;;;;;15.06;49.46;101888.59;4996684;28;45527;-68
2023/05/19 00:55:30;;;;;;;;;15.25;14.75;;;;;15.05;49.93;101882.31;5000227;28;45527;-67
2023/05/19 00:57:56;;;;;;;;;12.25;12.25;;;;;15.00;49.62;101873.22;4994709;28;45546;-67
2023/05/19 01:00:22;;;;;;;;;12.75;11.75;;;;;15.01;49.74;101875.00;4995058;28;45324;-65
2023/05/19 01:02:49;;;;;;;;;15.25;12.25;;;;;14.95;50.35;101865.88;4995248;28;45416;-68
2023/05/19 01:05:15;;;;;;;;;16.00;11.75;;;;;14.93;50.00;101868.50;4995386;28;45446;-67
2023/05/19 01:07:41;;;;;;;;;16.75;15.50;;;;;15.02;49.87;101881.31;4995962;28;45602;-66
2023/05/19 01:10:07;;;;;;;;;19.50;15.00;;;;;14.88;50.04;101857.66;4993632;28;46753;-67
2023/05/19 01:12:33;;;;;;;;;17.75;13.50;;;;;14.87;50.25;101863.91;4995305;28;45471;-66
2023/05/19 01:14:58;;;;;;;;;15.50;14.75;;;;;14.93;50.61;101872.13;4994946;28;45548;-65
2023/05/19 01:17:53;;;;;;;;;15.50;13.00;;;;;14.76;50.55;101851.03;4995270;28;45512;-69
2023/05/19 01:20:45;;;;;;;;;18.00;12.00;;;;;14.92;50.38;101874.78;4973700;28;47610;-66
2023/05/19 01:23:20;;;;;;;;;14.75;10.00;;;;;14.90;50.56;101880.13;4978771;28;45412;-68
2023/05/19 01:25:48;;;;;;;;;16.00;13.50;;;;;14.88;50.50;101884.56;4994793;28;45572;-68
2023/05/19 01:28:51;;;;;;;;;13.00;12.25;;;;;14.88;50.21;101867.47;4995156;28;45551;-68
2023/05/19 01:31:22;;;;;;;;;16.25;14.25;;;;;14.89;50.68;101874.69;4988636;28;46322;-67
2023/05/19 01:33:50;;;;;;;;;20.00;15.75;;;;;14.81;50.43;101852.97;4994403;28;45884;-69
2023/05/19 01:36:17;;;;;;;;;16.00;14.00;;;;;14.87;50.55;101865.69;4994066;28;45575;-68
2023/05/19 01:38:46;;;;;;;;;16.75;15.00;;;;;14.83;50.77;101862.00;4995193;28;45420;-67
2023/05/19 01:41:13;;;;;;;;;18.00;14.00;;;;;14.82;50.91;101859.28;4980580;28;46897;-66
2023/05/19 01:43:39;;;;;;;;;19.50;14.75;;;;;14.83;50.96;101866.44;4990020;28;45458;-67
2023/05/19 01:46:06;;;;;;;;;17.25;15.00;;;;;14.72;50.86;101847.34;4995557;28;45403;-66
2023/05/19 01:48:32;;;;;;;;;18.75;14.50;;;;;14.76;50.80;101862.69;4996208;28;45515;-67
2023/05/19 01:50:58;;;;;;;;;15.75;12.75;;;;;14.76;50.92;101868.06;4995997;28;45525;-67
2023/05/19 01:53:24;;;;;;;;;20.00;14.50;;;;;14.63;50.82;101856.06;4995731;28;45862;-68
2023/05/19 01:55:52;;;;;;;;;14.00;13.50;;;;;14.68;50.97;101872.34;4994055;28;45441;-68
2023/05/19 01:58:45;;;;;;;;;17.25;13.25;;;;;14.65;51.32;101867.78;4996506;28;45339;-66
2023/05/19 02:01:32;;;;;;;;;20.75;14.25;;;;;14.27;51.37;101819.19;4995546;28;46666;-66
2023/05/19 02:04:10;;;;;;;;;17.00;15.50;;;;;14.57;51.43;101872.91;4995079;28;45464;-68
2023/05/19 02:06:45;;;;;;;;;15.75;14.00;;;;;14.55;51.69;101869.28;4995358;28;45677;-67
2023/05/19 02:09:22;;;;;;;;;15.00;14.25;;;;;14.54;51.42;101875.50;4994543;28;45591;-68
2023/05/19 02:12:01;;;;;;;;;25.00;15.75;;;;;14.50;51.72;101865.56;4981987;28;45993;-68
2023/05/19 02:14:47;;;;;;;;;21.75;17.50;;;;;14.50;51.66;101864.63;4977359;28;45514;-68
2023/05/19 02:17:16;;;;;;;;;20.00;13.00;;;;;14.42;51.63;101853.66;4994282;28;45469;-67
2023/05/19 02:19:42;;;;;;;;;16.75;16.50;;;;;14.48;51.56;101867.25;4993362;28;45720;-69
2023/05/19 02:22:07;;;;;;;;;21.00;14.75;;;;;14.43;51.50;101858.16;4984304;28;45355;-66
2023/05/19 02:24:33;;;;;;;;;14.75;13.75;;;;;14.52;51.33;101868.28;4993019;28;45458;-67
2023/05/19 02:26:58;;;;;;;;;18.50;15.00;;;;;14.37;51.72;101837.41;4996264;28;46089;-67
2023/05/19 02:29:24;;;;;;;;;17.75;13.50;;;;;14.53;51.62;101862.91;4993682;28;46649;-70
2023/05/19 02:31:49;;;;;;;;;17.00;13.00;;;;;14.50;51.28;101865.56;4994483;28;45439;-69
2023/05/19 02:34:14;;;;;;;;;19.50;17.50;;;;;14.46;51.55;101863.63;4993957;28;47179;-68
2023/05/19 02:36:41;;;;;;;;;16.00;12.25;;;;;14.45;51.38;101868.97;4994144;28;45514;-68
2023/05/19 02:39:08;;;;;;;;;22.75;17.75;;;;;14.42;51.70;101863.50;4993672;28;45544;-68
2023/05/19 02:41:34;;;;;;;;;20.75;17.75;;;;;14.36;51.56;101864.25;4993976;28;45572;-68
2023/05/19 02:43:59;;;;;;;;;16.75;13.75;;;;;14.36;51.67;101862.44;4992715;28;45380;-67
2023/05/19 02:46:24;;;;;;;;;17.25;15.00;;;;;14.35;51.88;101865.09;4994186;28;45617;-68
2023/05/19 02:48:50;;;;;;;;;18.00;14.50;;;;;14.27;52.22;101856.84;4994275;28;45340;-67
2023/05/19 02:51:16;;;;;;;;;18.50;14.75;;;;;14.29;52.01;101857.78;4993614;28;45668;-67
2023/05/19 02:53:41;;;;;;;;;25.50;18.00;;;;;14.33;51.69;101861.47;4993221;28;45680;-67
2023/05/19 02:56:06;;;;;;;;;17.50;16.25;;;;;14.31;51.72;101863.19;4992753;28;62084;-67
2023/05/19 02:58:32;;;;;;;;;17.75;14.50;;;;;14.31;52.00;101856.03;4993968;28;45550;-67
2023/05/19 03:00:57;;;;;;;;;22.50;16.50;;;;;14.33;51.69;101850.72;4993530;28;49314;-67
2023/05/19 03:03:22;;;;;;;;;15.50;14.00;;;;;14.28;51.79;101847.88;4972599;28;45514;-70
2023/05/19 03:05:48;;;;;;;;;22.00;21.00;;;;;14.30;52.36;101859.56;4985555;28;45821;-68
2023/05/19 03:08:13;;;;;;;;;23.00;19.25;;;;;14.23;51.89;101848.63;4997122;28;45515;-67
2023/05/19 03:10:39;;;;;;;;;20.00;15.50;;;;;14.20;52.54;101865.56;4997338;28;45833;-68
2023/05/19 03:13:04;;;;;;;;;19.00;16.75;;;;;14.19;52.28;101858.38;4996889;28;45434;-67
2023/05/19 03:15:30;;;;;;;;;22.75;19.75;;;;;13.80;52.55;101806.19;4997082;28;45422;-67
2023/05/19 03:17:55;;;;;;;;;20.00;17.00;;;;;14.06;52.32;101857.09;4995967;28;45329;-67
2023/05/19 03:20:21;;;;;;;;;16.75;14.50;;;;;13.99;53.04;101850.63;4996726;28;49171;-67
2023/05/19 03:22:46;;;;;;;;;21.75;17.50;;;;;14.03;52.96;101864.16;4996673;28;45405;-67
2023/05/19 03:25:12;;;;;;;;;23.75;16.75;;;;;13.98;52.38;101851.50;4979014;28;45959;-68
2023/05/19 03:27:37;;;;;;;;;18.25;15.50;;;;;13.95;52.49;101858.56;4996147;28;45641;-67
2023/05/19 03:30:03;;;;;;;;;18.50;16.25;;;;;13.98;52.79;101859.56;4996864;28;46080;-66
2023/05/19 03:32:31;;;;;;;;;22.00;16.00;;;;;13.92;52.41;101851.28;4996842;28;45483;-66
2023/05/19 03:34:56;;;;;;;;;22.00;14.75;;;;;14.00;52.42;101865.88;4996840;28;45400;-68
2023/05/19 03:37:21;;;;;;;;;15.00;13.00;;;;;14.01;52.38;101862.34;4996845;28;45406;-67
2023/05/19 03:39:47;;;;;;;;;14.75;14.25;;;;;13.99;52.94;101864.06;4996617;28;45628;-66
2023/05/19 03:42:12;;;;;;;;;21.75;18.50;;;;;13.93;52.27;101854.91;4995527;28;45533;-66
2023/05/19 03:44:37;;;;;;;;;16.75;14.00;;;;;13.96;52.44;101861.28;4996701;28;45369;-66
2023/05/19 03:47:03;;;;;;;;;18.50;15.25;;;;;13.88;52.34;101860.16;4996331;28;45687;-68
2023/05/19 03:49:28;;;;;;;;;14.50;14.00;;;;;13.88;52.65;101865.53;4996168;28;46147;-66
2023/05/19 03:51:54;;;;;;;;;19.75;16.75;;;;;13.86;53.10;101864.56;4995865;28;45456;-67
2023/05/19 03:54:21;;;;;;;;;25.00;18.00;;;;;13.76;52.66;101857.06;4996467;28;45541;-67
2023/05/19 03:56:47;;;;;;;;;22.25;18.00;;;;;13.79;52.83;101866.16;4979199;28;45608;-66
2023/05/19 03:59:12;;;;;;;;;20.00;18.00;;;;;13.76;53.42;101862.44;4996272;28;45587;-66
2023/05/19 04:01:37;;;;;;;;;13.75;13.75;;;;;13.69;53.15;101855.97;4996298;28;45482;-69
2023/05/19 04:04:03;;;;;;;;;22.75;20.25;;;;;13.71;52.79;101856.94;4996254;28;45504;-68
2023/05/19 04:06:28;;;;;;;;;14.00;10.00;;;;;13.68;53.61;101859.53;4964920;28;45521;-67
2023/05/19 04:08:54;;;;;;;;;19.75;18.50;;;;;13.70;53.38;101856.91;4995866;28;45375;-67
2023/05/19 04:11:20;;;;;;;;;20.50;16.25;;;;;13.72;53.57;101866.81;4996024;28;45289;-67
2023/05/19 04:13:45;;;;;;;;;19.75;18.75;;;;;13.62;53.70;101859.31;4995591;28;45585;-68
2023/05/19 04:16:11;;;;;;;;;20.75;17.00;;;;;13.48;53.08;101844.53;4978331;28;45503;-67
2023/05/19 04:18:36;;;;;;;;;17.75;15.00;;;;;13.57;54.01;101866.31;4993926;28;45503;-66
2023/05/19 04:21:01;;;;;;;;;13.25;13.00;;;;;13.55;54.12;101863.59;4985075;28;45953;-66
2023/05/19 04:23:27;;;;;;;;;25.50;18.75;;;;;13.54;53.82;101866.22;4987969;28;49777;-67
2023/05/19 04:25:53;;;;;;;;;22.75;18.25;;;;;13.57;53.81;101872.59;5004470;28;45521;-67
2023/05/19 04:28:18;;;;;;;;;21.50;19.75;;;;;13.56;53.61;101877.91;4974745;28;47057;-66
2023/05/19 04:30:45;;;;;;;;;23.50;19.25;;;;;13.57;53.69;101872.59;4972755;28;46628;-67
2023/05/19 04:33:11;;;;;;;;;16.75;14.25;;;;;13.56;54.30;101864.50;4995273;28;45556;-67
2023/05/19 04:35:38;;;;;;;;;26.25;19.75;;;;;13.61;54.07;101876.28;4995994;28;45484;-65
2023/05/19 04:38:04;;;;;;;;;26.00;22.50;;;;;13.56;53.67;101864.50;4994978;28;46322;-68
2023/05/19 04:40:29;;;;;;;;;19.25;18.75;;;;;13.56;54.12;101875.22;4995628;28;45372;-67
2023/05/19 04:42:56;;;;;;;;;33.75;21.00;;;;;13.52;53.36;101881.38;4974280;28;45338;-67
2023/05/19 04:45:22;;;;;;;;;21.00;17.75;;;;;13.48;53.25;101868.69;4989253;28;45398;-67
2023/05/19 04:47:47;;;;;;;;;21.75;18.25;;;;;13.41;53.64;101863.16;4995345;28;45475;-66
2023/05/19 04:50:15;;;;;;;;;18.50;16.75;;;;;13.50;53.20;101875.06;4995486;28;45762;-66
2023/05/19 04:52:44;;;;;;;;;31.00;22.00;;;;;13.51;53.92;101874.19;4995093;28;45494;-67
2023/05/19 04:55:10;;;;;;;;;23.25;22.00;;;;;13.50;53.96;101873.28;4994222;28;45623;-68
2023/05/19 04:57:36;;;;;;;;;24.75;19.75;;;;;13.51;52.98;101876.88;4973987;28;48235;-68
2023/05/19 05:00:06;;;;;;;;;18.25;16.75;;;;;13.51;53.79;101887.59;4989265;28;45353;-67
2023/05/19 05:02:32;;;;;;;;;22.50;18.50;;;;;13.51;52.95;101883.13;4995220;28;45460;-67
2023/05/19 05:04:58;;;;;;;;;25.75;20.25;;;;;13.51;53.25;101885.81;4993480;28;45463;-68
2023/05/19 05:07:23;;;;;;;;;20.25;17.75;;;;;13.53;52.88;101894.84;4996774;28;47540;-66
2023/05/19 05:09:49;;;;;;;;;48.75;38.75;;;;;13.54;52.92;101890.41;4995213;28;45304;-67
2023/05/19 05:12:15;;;;;;;;;29.00;23.00;;;;;13.57;52.84;101888.72;4993872;28;45373;-65
2023/05/19 05:14:40;;;;;;;;;27.50;22.50;;;;;13.54;53.43;101885.03;4993960;28;45586;-64
2023/05/19 05:17:06;;;;;;;;;27.25;24.25;;;;;13.60;53.06;101904.03;4993573;28;45735;-67
2023/05/19 05:19:32;;;;;;;;;27.75;23.25;;;;;13.59;53.21;101900.41;4995153;28;45568;-65
2023/05/19 05:21:58;;;;;;;;;26.75;18.25;;;;;13.64;53.13;101905.94;4993943;28;45731;-65
2023/05/19 05:24:24;;;;;;;;;24.50;22.00;;;;;13.61;52.47;101909.44;4994779;28;45378;-67
2023/05/19 05:26:50;;;;;;;;;27.50;24.75;;;;;13.63;52.76;101906.81;4994530;28;45435;-65
2023/05/19 05:29:15;;;;;;;;;25.75;20.75;;;;;13.66;52.71;101904.22;4975961;28;45392;-66
2023/05/19 05:31:40;;;;;;;;;20.00;17.75;;;;;13.63;52.27;101904.13;4994751;28;45462;-67
2023/05/19 05:34:06;;;;;;;;;19.50;19.00;;;;;13.69;52.29;101908.78;4994668;28;45556;-66
2023/05/19 05:36:33;;;;;;;;;18.25;18.25;;;;;13.68;52.75;101898.88;4994489;28;45552;-67
2023/05/19 05:39:01;;;;;;;;;27.75;20.25;;;;;13.70;52.10;101906.13;4993393;28;45414;-66
2023/05/19 05:41:33;;;;;;;;;20.50;19.50;;;;;13.72;51.62;101911.56;4990094;28;45407;-67
2023/05/19 05:43:59;;;;;;;;;50.00;39.75;;;;;13.69;51.81;101901.63;4992220;28;45613;-66
2023/05/19 05:46:24;;;;;;;;;20.75;18.50;;;;;13.74;52.11;101912.50;4993131;28;45502;-66
2023/05/19 05:48:50;;;;;;;;;32.75;23.50;;;;;13.65;52.42;101888.97;4997125;28;45478;-65
2023/05/19 05:51:15;;;;;;;;;38.00;34.75;;;;;13.76;52.15;101903.66;5004194;28;45250;-66
2023/05/19 05:53:48;;;;;;;;;33.50;27.25;;;;;13.85;51.98;101910.19;5009381;28;45626;-67
2023/05/19 05:56:14;;;;;;;;;26.00;21.50;;;;;13.86;51.75;101912.91;4998699;28;45995;-68
2023/05/19 05:58:39;;;;;;;;;22.25;17.25;;;;;13.81;51.68;101902.03;4988614;28;45759;-67
2023/05/19 06:01:09;;;;;;;;;20.00;17.50;;;;;13.82;51.50;101900.25;4991405;28;50140;-66
2023/05/19 06:03:36;;;;;;;;;21.50;19.50;;;;;13.96;51.01;101906.97;5009843;28;45044;-66
2023/05/19 06:06:02;;;;;;;;;22.25;20.50;;;;;13.99;51.35;101916.88;4987262;28;47798;-66
2023/05/19 06:08:27;;;;;;;;;21.50;19.00;;;;;14.01;50.64;101913.38;5009134;28;45254;-66
2023/05/19 06:10:53;;;;;;;;;57.00;43.50;;;;;13.94;51.20;101902.41;5005323;28;45675;-66
2023/05/19 06:13:21;;;;;;;;;46.00;34.50;;;;;14.11;51.40;101927.13;4999482;28;49576;-66
2023/05/19 06:15:46;;;;;;;;;23.25;19.75;;;;;14.14;50.57;101921.84;4993943;28;46144;-66
2023/05/19 06:18:11;;;;;;;;;17.75;17.25;;;;;14.18;50.55;101918.38;4993417;28;58826;-67
2023/05/19 06:20:37;;;;;;;;;17.75;16.00;;;;;14.22;49.92;101919.38;4992378;28;65228;-66
2023/05/19 06:23:02;;;;;;;;;20.50;17.50;;;;;14.22;50.14;101914.00;4998825;28;45296;-65
2023/05/19 06:25:28;;;;;;;;;24.25;21.50;;;;;14.23;50.54;101923.88;4993342;28;46570;-65
2023/05/19 06:27:53;;;;;;;;;24.00;22.50;;;;;14.25;50.19;101920.38;4987905;28;45479;-66
2023/05/19 06:30:18;;;;;;;;;30.25;23.50;;;;;14.31;50.17;101925.03;4991680;28;45755;-65
2023/05/19 06:32:44;;;;;;;;;30.25;21.75;;;;;14.34;50.28;101917.97;4992107;28;45367;-66
2023/05/19 06:35:10;;;;;;;;;31.25;22.00;;;;;14.32;50.14;101910.72;4990306;28;46247;-68
2023/05/19 06:37:35;;;;;;;;;20.25;18.00;;;;;14.40;50.18;101911.84;4994381;28;45340;-68
2023/05/19 06:40:00;;;;;;;;;21.25;19.25;;;;;14.47;49.82;101918.31;5005678;28;45026;-67
2023/05/19 06:42:26;;;;;;;;;24.50;21.50;;;;;14.51;49.81;101912.16;4994595;28;45603;-67
2023/05/19 06:44:52;;;;;;;;;22.25;19.75;;;;;14.57;49.26;101904.28;4996630;28;49872;-69
2023/05/19 06:47:18;;;;;;;;;21.75;18.75;;;;;14.59;49.47;101902.56;4998033;28;45241;-65
2023/05/19 06:49:44;;;;;;;;;20.50;15.75;;;;;14.60;49.54;101890.97;4997133;28;45585;-67
2023/05/19 06:52:10;;;;;;;;;21.75;18.75;;;;;14.76;49.12;101905.72;4976141;28;45717;-67
2023/05/19 06:54:35;;;;;;;;;20.50;19.75;;;;;14.88;49.06;101907.84;4987924;28;45340;-69
2023/05/19 06:57:02;;;;;;;;;20.25;17.00;;;;;14.90;48.65;101908.81;4997124;28;45545;-67
2023/05/19 06:59:28;;;;;;;;;22.75;20.25;;;;;14.91;48.51;101902.56;5001339;28;45413;-67
2023/05/19 07:01:53;;;;;;;;;22.50;18.25;;;;;14.93;48.39;101896.34;4997359;28;45601;-69
2023/05/19 07:04:18;;;;;;;;;20.50;19.75;;;;;14.98;48.32;101892.84;4997084;28;45582;-68
2023/05/19 07:06:44;;;;;;;;;22.25;20.00;;;;;15.05;48.42;101893.06;4997033;28;45571;-70
2023/05/19 07:09:09;;;;;;;;;21.75;17.50;;;;;15.13;48.14;101889.66;4996964;28;45483;-68
2023/05/19 07:11:35;;;;;;;;;21.25;20.00;;;;;15.19;47.95;101887.13;4978645;28;45471;-68
2023/05/19 07:14:00;;;;;;;;;33.50;29.00;;;;;15.18;47.87;101874.53;4994995;28;45986;-66
2023/05/19 07:16:25;;;;;;;;;30.50;22.25;;;;;15.26;47.72;101884.66;4995320;28;45383;-68
2023/05/19 07:18:50;;;;;;;;;23.25;19.00;;;;;15.29;48.09;101878.41;4996859;28;45556;-67
2023/05/19 07:21:16;;;;;;;;;22.75;18.50;;;;;15.45;47.37;101896.78;4978882;28;45597;-68
2023/05/19 07:23:41;;;;;;;;;37.00;29.75;;;;;15.56;47.84;101902.44;4985701;28;47167;-68
2023/05/19 07:26:07;;;;;;;;;21.25;18.50;;;;;15.57;46.93;101897.97;5013963;28;45023;-69
2023/05/19 07:28:33;;;;;;;;;19.25;15.00;;;;;15.64;46.84;101895.47;5012712;28;45006;-69
2023/05/19 07:30:59;;;;;;;;;18.75;17.50;;;;;15.62;47.19;101888.19;5013353;28;45250;-69
2023/05/19 07:33:25;;;;;;;;;26.00;17.25;;;;;15.74;47.21;101896.59;5013978;28;45787;-68
2023/05/19 07:35:51;;;;;;;;;49.50;37.50;;;;;15.85;47.07;101894.16;5011914;28;45228;-67
2023/05/19 07:38:17;;;;;;;;;31.25;25.50;;;;;15.90;46.41;101881.69;4985416;28;45530;-70
2023/05/19 07:40:42;;;;;;;;;28.25;24.50;;;;;15.83;46.50;101867.16;5011715;28;45080;-67
2023/05/19 07:43:08;;;;;;;;;23.75;20.00;;;;;16.00;45.88;101883.75;5019566;28;45574;-68
2023/05/19 07:45:33;;;;;;;;;22.50;17.00;;;;;16.10;45.79;101886.63;5003678;28;45451;-67
2023/05/19 07:47:58;;;;;;;;;23.50;19.75;;;;;16.16;45.82;101884.06;4992530;28;45462;-66
2023/05/19 07:50:24;;;;;;;;;30.75;27.00;;;;;16.16;45.53;101870.59;4992991;28;45652;-67
2023/05/19 07:52:49;;;;;;;;;21.25;18.50;;;;;16.31;45.92;101884.38;4992533;28;45454;-67
2023/05/19 07:55:15;;;;;;;;;18.00;17.25;;;;;16.29;45.38;101869.06;4999293;28;45553;-67
2023/05/19 07:57:40;;;;;;;;;22.75;16.50;;;;;16.43;45.67;101878.34;4997892;28;45699;-68
2023/05/19 08:00:08;;;;;;;;;34.75;31.75;;;;;16.48;45.04;101870.34;4992920;28;46044;-67
2023/05/19 08:02:34;;;;;;;;;26.50;17.50;;;;;16.60;45.36;101878.69;4987016;28;46439;-67
2023/05/19 08:04:59;;;;;;;;;21.25;20.25;;;;;16.70;44.69;101877.97;4994586;28;45363;-68
2023/05/19 08:07:25;;;;;;;;;33.50;30.50;;;;;16.52;45.08;101829.97;4982118;28;45303;-68
2023/05/19 08:09:50;;;;;;;;;23.25;19.00;;;;;16.78;44.63;101856.56;4999300;28;45500;-67
2023/05/19 08:12:15;;;;;;;;;48.50;34.25;;;;;16.93;44.56;101864.06;4996580;28;46196;-69
2023/05/19 08:14:41;;;;;;;;;16.75;14.75;;;;;16.97;44.50;101862.31;4996046;28;45507;-66
2023/05/19 08:17:06;;;;;;;;;23.75;19.00;;;;;17.07;44.48;101865.19;4977188;28;45706;-68
2023/05/19 08:19:32;;;;;;;;;24.50;18.50;;;;;17.03;44.25;101849.81;4989574;28;45472;-68
2023/05/19 08:21:59;;;;;;;;;18.75;16.00;;;;;17.22;44.00;101867.25;4998131;28;46097;-66
2023/05/19 08:24:25;;;;;;;;;22.25;19.00;;;;;17.21;44.13;101854.63;4992696;28;45584;-69
2023/05/19 08:26:51;;;;;;;;;20.25;17.25;;;;;17.36;43.77;101864.78;4995299;28;45476;-69
2023/05/19 08:29:16;;;;;;;;;20.75;16.00;;;;;17.41;44.01;101854.06;4997721;28;45616;-68
2023/05/19 08:31:41;;;;;;;;;42.25;30.50;;;;;17.52;43.64;101862.31;4996622;28;45318;-68
2023/05/19 08:34:07;;;;;;;;;24.00;21.50;;;;;17.54;43.28;101853.38;4978503;28;45614;-68
2023/05/19 08:36:32;;;;;;;;;34.50;28.75;;;;;17.61;43.75;101857.06;4990813;28;45344;-68
2023/05/19 08:38:58;;;;;;;;;22.75;14.50;;;;;17.63;43.36;101850.78;4998343;28;45392;-67
2023/05/19 08:41:23;;;;;;;;;18.25;17.25;;;;;17.71;43.25;101853.59;4996503;28;47132;-66
2023/05/19 08:43:49;;;;;;;;;19.25;17.25;;;;;17.75;43.41;101855.50;4994730;28;45312;-68
2023/05/19 08:46:15;;;;;;;;;19.00;17.25;;;;;17.82;43.29;101849.28;4995907;28;45505;-68
2023/05/19 08:48:42;;;;;;;;;20.00;18.00;;;;;17.94;43.26;101853.06;4995903;28;45223;-66
2023/05/19 08:51:41;;;;;;;;;18.25;17.00;;;;;18.01;43.06;101841.44;4996186;28;46527;-68
2023/05/19 08:54:17;;;;;;;;;15.67;13.67;;;;;18.08;43.03;101840.63;4987167;28;45447;-68
2023/05/19 08:56:44;;;;;;;;;15.75;12.25;;;;;18.13;42.83;101828.09;4994451;28;45654;-67
2023/05/19 08:59:12;;;;;;;;;15.75;15.75;;;;;18.22;42.24;101828.19;4997951;28;45333;-65
2023/05/19 09:01:38;;;;;;;;;19.00;16.75;;;;;18.26;41.94;101817.41;4997383;28;45632;-71
2023/05/19 09:04:05;;;;;;;;;17.50;16.25;;;;;18.42;42.13;101824.81;4994321;28;45403;-68
2023/05/19 09:06:31;;;;;;;;;15.25;15.00;;;;;18.47;41.93;101819.44;4998860;28;45304;-67
2023/05/19 09:08:56;;;;;;;;;17.00;15.50;;;;;18.53;41.81;101820.44;5006347;28;46471;-67
2023/05/19 09:11:22;;;;;;;;;22.50;20.25;;;;;18.55;41.75;101805.09;5002101;28;45623;-69
2023/05/19 09:13:48;;;;;;;;;18.00;16.75;;;;;18.68;41.68;101813.38;4995283;28;45447;-68
2023/05/19 09:16:14;;;;;;;;;20.75;16.25;;;;;18.80;41.65;101810.75;4996087;28;45419;-68
2023/05/19 09:18:42;;;;;;;;;18.25;14.50;;;;;18.88;41.45;101819.91;4996650;28;45527;-69
2023/05/19 09:21:09;;;;;;;;;9.67;9.33;;;;;18.90;40.77;101807.28;4987416;28;45419;-69
2023/05/19 09:23:35;;;;;;;;;13.00;11.00;;;;;18.99;41.04;101808.25;4971757;28;45748;-67
2023/05/19 09:26:03;;;;;;;;;20.00;14.33;;;;;19.00;40.39;101793.81;4972598;28;45982;-68
2023/05/19 09:28:33;;;;;;;;;15.00;15.00;;;;;19.07;40.40;101796.59;4987346;28;45672;-67
2023/05/19 09:30:59;;;;;;;;;15.67;12.00;;;;;19.14;40.51;101795.75;4993925;28;45620;-66
2023/05/19 09:33:25;;;;;;;;;19.67;14.33;;;;;19.21;40.66;101794.00;4976809;28;45597;-67
2023/05/19 09:35:53;;;;;;;;;15.00;14.00;;;;;19.26;40.08;101789.50;4983449;28;45555;-68
2023/05/19 09:38:18;;;;;;;;;16.00;12.00;;;;;19.36;39.92;101792.28;4994569;28;45487;-67
2023/05/19 09:40:44;;;;;;;;;16.00;10.67;;;;;19.44;39.73;101791.44;4990952;28;46279;-66
2023/05/19 09:43:10;;;;;;;;;11.67;9.00;;;;;19.53;39.72;101782.44;4993315;28;45480;-66
2023/05/19 09:45:35;;;;;;;;;11.00;10.00;;;;;19.59;39.06;101787.91;4992328;28;45511;-67
2023/05/19 09:48:05;;;;;;;;;21.00;16.25;;;;;19.64;38.64;101778.00;4991511;28;45448;-66
2023/05/19 09:50:31;;;;;;;;;11.67;10.33;;;;;19.77;38.13;101789.84;4982115;28;45440;-65
2023/05/19 09:52:57;;;;;;;;;10.00;9.00;;;;;19.79;37.61;101788.06;4985664;28;45562;-67
2023/05/19 09:55:27;;;;;;;;;9.33;8.67;;;;;19.84;37.79;101788.09;4993472;28;45657;-67
2023/05/19 09:57:54;;;;;;;;;9.67;9.67;;;;;19.91;37.97;101786.31;4990081;28;45595;-68
2023/05/19 10:00:21;;;;;;;;;12.67;9.67;;;;;19.92;37.66;101782.69;4991124;28;45541;-67
2023/05/19 10:02:49;;;;;;;;;19.33;16.00;;;;;19.99;37.56;101792.66;4985365;28;45467;-69
2023/05/19 10:05:18;;;;;;;;;20.75;17.50;;;;;20.03;37.65;101789.97;4989375;28;45421;-65
2023/05/19 10:07:50;;;;;;;;;12.67;12.67;;;;;20.10;37.13;101790.91;4964389;28;46494;-68
2023/05/19 10:10:16;;;;;;;;;16.67;7.33;;;;;20.05;37.53;101774.59;4992014;28;46258;-66
2023/05/19 10:12:42;;;;;;;;;9.33;9.00;;;;;20.16;37.65;101780.09;4992103;28;45261;-68
2023/05/19 10:15:16;;;;;;;;;19.00;17.00;;;;;20.19;36.84;101773.75;4975556;28;45475;-68
2023/05/19 10:17:43;;;;;;;;;11.33;10.67;;;;;20.28;36.75;101765.63;4994189;28;45309;-67
2023/05/19 10:20:11;;;;;;;;;14.00;12.67;;;;;20.28;36.49;101768.34;4993251;28;45398;-69
2023/05/19 10:22:38;;;;;;;;;13.00;9.33;;;;;20.20;36.35;101752.03;4993517;28;45382;-67
2023/05/19 10:25:05;;;;;;;;;6.67;6.67;;;;;20.33;36.07;101766.56;4993605;28;45462;-65
2023/05/19 10:27:34;;;;;;;;;10.67;8.67;;;;;20.36;36.05;101769.28;4985763;28;45621;-67
2023/05/19 10:30:11;;;;;;;;;7.33;7.00;;;;;20.43;36.09;101773.81;4993192;28;45432;-68
2023/05/19 10:32:40;;;;;;;;;12.33;7.67;;;;;20.38;35.55;101748.47;4994146;28;45624;-68
2023/05/19 10:35:23;;;;;;;;;8.67;8.67;;;;;20.49;36.17;101764.78;4972438;28;45326;-68
2023/05/19 10:38:23;;;;;;;;;9.67;9.67;;;;;20.53;36.08;101774.72;4982175;28;45681;-67
2023/05/19 10:41:01;;;;;;;;;19.33;12.33;;;;;20.50;36.33;101774.72;4993547;28;45336;-68
2023/05/19 10:43:48;;;;;;;;;20.33;12.67;;;;;20.46;36.86;101762.06;4993631;28;45445;-68
2023/05/19 10:46:13;;;;;;;;;11.33;9.00;;;;;20.45;36.62;101760.22;4993754;28;45423;-68
2023/05/19 10:48:43;;;;;;;;;13.67;10.67;;;;;20.42;36.42;101752.97;4993064;28;45587;-66
2023/05/19 10:51:10;;;;;;;;;9.67;9.33;;;;;20.40;36.10;101759.31;4988368;28;45618;-65
2023/05/19 10:53:40;;;;;;;;;10.33;7.00;;;;;20.46;36.29;101761.13;4994875;28;45801;-67
2023/05/19 10:56:06;;;;;;;;;9.00;8.33;;;;;20.43;36.23;101760.22;4991839;28;45542;-68
2023/05/19 10:58:44;;;;;;;;;14.67;13.67;;;;;20.38;36.37;101750.28;4993549;28;45647;-69
2023/05/19 11:01:13;;;;;;;;;18.25;15.75;;;;;20.46;36.49;101755.69;4993554;28;46830;-67
2023/05/19 11:03:47;;;;;;;;;11.67;11.67;;;;;20.47;35.94;101750.28;4993694;28;45266;-66
2023/05/19 11:06:34;;;;;;;;;12.00;12.00;;;;;20.39;35.77;101749.34;4993076;28;45552;-67
2023/05/19 11:09:09;;;;;;;;;11.33;10.00;;;;;20.38;35.51;101750.28;4992974;28;45486;-67
2023/05/19 11:11:48;;;;;;;;;7.00;5.33;;;;;20.47;35.65;101746.66;4992683;28;45328;-67